createdAt,value
2017-10-13T00:00:03.687Z,67.78
2017-10-13T00:00:46.567Z,67.68
2017-10-13T00:01:27.022Z,67.68
2017-10-13T00:02:07.470Z,67.78
2017-10-13T00:02:47.926Z,67.88
2017-10-13T00:03:28.379Z,67.97
2017-10-13T00:04:08.829Z,68.26
2017-10-13T00:04:49.281Z,68.35
2017-10-13T00:05:31.046Z,68.35
2017-10-13T00:06:11.441Z,68.35
2017-10-13T00:06:51.894Z,68.07
2017-10-13T00:07:32.367Z,68.07
2017-10-13T00:08:12.819Z,68.07
2017-10-13T00:08:53.270Z,68.07
2017-10-13T00:09:33.726Z,68.26
2017-10-13T00:10:14.186Z,68.26
2017-10-13T00:10:54.641Z,68.16
2017-10-13T00:11:35.098Z,67.97
2017-10-13T00:12:15.544Z,68.26
2017-10-13T00:12:55.996Z,68.35
2017-10-13T00:13:36.458Z,68.35
2017-10-13T00:14:16.918Z,68.26
2017-10-13T00:14:57.370Z,68.35
2017-10-13T00:15:37.819Z,68.16
2017-10-13T00:16:18.265Z,68.16
2017-10-13T00:16:58.724Z,68.16
2017-10-13T00:17:39.175Z,68.07
2017-10-13T00:18:19.630Z,68.16
2017-10-13T00:19:00.102Z,68.16
2017-10-13T00:19:40.560Z,68.16
2017-10-13T00:20:21.021Z,68.35
2017-10-13T00:21:01.475Z,67.88
2017-10-13T00:21:41.938Z,67.97
2017-10-13T00:22:22.388Z,68.07
2017-10-13T00:23:02.842Z,68.07
2017-10-13T00:23:43.298Z,68.26
2017-10-13T00:24:23.748Z,68.16
2017-10-13T00:25:04.203Z,68.16
2017-10-13T00:25:44.662Z,68.35
2017-10-13T00:26:25.111Z,67.88
2017-10-13T00:27:05.568Z,68.45
2017-10-13T00:27:46.026Z,68.35
2017-10-13T00:28:26.479Z,68.55
2017-10-13T00:29:06.960Z,68.74
2017-10-13T00:29:47.404Z,68.74
2017-10-13T00:30:27.844Z,68.74
2017-10-13T00:31:08.303Z,68.84
2017-10-13T00:31:48.754Z,68.84
2017-10-13T00:32:29.223Z,68.55
2017-10-13T00:33:09.643Z,68.84
2017-10-13T00:33:50.108Z,68.65
2017-10-13T00:34:30.577Z,68.74
2017-10-13T00:35:11.028Z,68.55
2017-10-13T00:35:51.484Z,68.74
2017-10-13T00:36:31.943Z,68.74
2017-10-13T00:37:12.401Z,68.74
2017-10-13T00:37:52.906Z,68.65
2017-10-13T00:38:33.355Z,68.65
2017-10-13T00:39:13.791Z,68.55
2017-10-13T00:39:54.248Z,68.55
2017-10-13T00:40:34.703Z,68.65
2017-10-13T00:41:15.154Z,68.55
2017-10-13T00:41:55.610Z,68.65
2017-10-13T00:42:36.060Z,68.65
2017-10-13T00:43:16.515Z,68.45
2017-10-13T00:43:56.977Z,68.55
2017-10-13T00:44:37.470Z,68.55
2017-10-13T00:45:17.917Z,68.65
2017-10-13T00:45:58.361Z,68.65
2017-10-13T00:46:38.813Z,68.45
2017-10-13T00:47:19.283Z,68.45
2017-10-13T00:47:59.721Z,68.35
2017-10-13T00:48:40.178Z,68.35
2017-10-13T00:49:20.627Z,68.45
2017-10-13T00:50:01.075Z,68.45
2017-10-13T00:50:41.526Z,68.55
2017-10-13T00:51:21.994Z,68.35
2017-10-13T00:52:02.447Z,68.45
2017-10-13T00:52:42.903Z,68.55
2017-10-13T00:53:23.353Z,68.55
2017-10-13T00:54:03.808Z,68.55
2017-10-13T00:54:44.254Z,68.55
2017-10-13T00:55:24.709Z,68.74
2017-10-13T00:56:05.165Z,68.93
2017-10-13T00:56:45.615Z,68.55
2017-10-13T00:57:26.077Z,69.03
2017-10-13T00:58:06.538Z,68.84
2017-10-13T00:58:47.017Z,69.03
2017-10-13T00:59:27.463Z,69.13
2017-10-13T01:00:07.915Z,68.93
2017-10-13T01:00:48.358Z,68.84
2017-10-13T01:01:28.834Z,68.84
2017-10-13T01:02:09.265Z,68.93
2017-10-13T01:02:49.722Z,68.84
2017-10-13T01:03:30.174Z,68.84
2017-10-13T01:04:10.636Z,68.93
2017-10-13T01:04:51.115Z,68.74
2017-10-13T01:05:31.541Z,68.74
2017-10-13T01:06:11.997Z,68.74
2017-10-13T01:06:52.449Z,68.84
2017-10-13T01:07:32.910Z,68.74
2017-10-13T01:08:13.361Z,68.84
2017-10-13T01:08:53.814Z,68.84
2017-10-13T01:09:34.261Z,68.74
2017-10-13T01:10:14.719Z,68.84
2017-10-13T01:10:55.167Z,68.74
2017-10-13T01:11:35.631Z,69.32
2017-10-13T01:12:16.089Z,69.42
2017-10-13T01:12:56.545Z,68.84
2017-10-13T01:13:36.996Z,69.13
2017-10-13T01:14:17.451Z,69.13
2017-10-13T01:14:57.910Z,69.51
2017-10-13T01:15:38.370Z,69.23
2017-10-13T01:16:18.831Z,69.23
2017-10-13T01:16:59.278Z,69.23
2017-10-13T01:17:39.737Z,69.32
2017-10-13T01:18:20.196Z,69.32
2017-10-13T01:19:00.638Z,69.23
2017-10-13T01:19:41.095Z,69.13
2017-10-13T01:20:21.548Z,69.13
2017-10-13T01:21:02.000Z,69.23
2017-10-13T01:21:42.440Z,69.51
2017-10-13T01:22:22.897Z,69.32
2017-10-13T01:23:03.351Z,69.61
2017-10-13T01:23:43.806Z,69.61
2017-10-13T01:24:24.262Z,69.51
2017-10-13T01:25:04.715Z,69.32
2017-10-13T01:25:45.168Z,69.32
2017-10-13T01:26:25.617Z,69.13
2017-10-13T01:27:06.071Z,69.23
2017-10-13T01:27:46.526Z,69.51
2017-10-13T01:28:26.987Z,69.51
2017-10-13T01:29:07.449Z,69.23
2017-10-13T01:29:47.875Z,69.03
2017-10-13T01:30:28.351Z,69.13
2017-10-13T01:31:08.807Z,69.42
2017-10-13T01:31:49.260Z,69.13
2017-10-13T01:32:29.707Z,68.84
2017-10-13T01:33:10.128Z,69.03
2017-10-13T01:33:50.572Z,68.84
2017-10-13T01:34:31.024Z,69.13
2017-10-13T01:35:11.484Z,69.03
2017-10-13T01:35:51.937Z,68.84
2017-10-13T01:36:32.398Z,69.23
2017-10-13T01:37:12.849Z,68.84
2017-10-13T01:37:53.313Z,69.13
2017-10-13T01:38:33.755Z,69.13
2017-10-13T01:39:14.209Z,68.84
2017-10-13T01:39:54.662Z,69.13
2017-10-13T01:40:35.116Z,68.84
2017-10-13T01:41:15.574Z,68.93
2017-10-13T01:41:56.032Z,68.55
2017-10-13T01:42:36.477Z,69.32
2017-10-13T01:43:16.939Z,68.84
2017-10-13T01:43:57.394Z,69.03
2017-10-13T01:44:37.852Z,68.84
2017-10-13T01:45:18.306Z,68.55
2017-10-13T01:45:58.769Z,69.13
2017-10-13T01:46:39.213Z,68.65
2017-10-13T01:47:19.674Z,69.13
2017-10-13T01:48:00.132Z,69.13
2017-10-13T01:48:40.579Z,68.93
2017-10-13T01:49:21.029Z,68.93
2017-10-13T01:50:01.487Z,69.03
2017-10-13T01:50:41.948Z,69.13
2017-10-13T01:51:22.408Z,69.13
2017-10-13T01:52:02.866Z,69.23
2017-10-13T01:52:43.322Z,69.23
2017-10-13T01:53:23.800Z,69.13
2017-10-13T01:54:04.242Z,69.42
2017-10-13T01:54:44.692Z,69.13
2017-10-13T01:55:25.148Z,69.42
2017-10-13T01:56:05.599Z,69.23
2017-10-13T01:56:46.045Z,69.03
2017-10-13T01:57:26.497Z,69.03
2017-10-13T01:58:06.956Z,69.51
2017-10-13T01:58:47.409Z,69.51
2017-10-13T01:59:27.859Z,69.51
2017-10-13T02:00:08.310Z,69.13
2017-10-13T02:00:48.775Z,69.13
2017-10-13T02:01:29.223Z,69.42
2017-10-13T02:02:09.655Z,69.42
2017-10-13T02:02:50.118Z,69.42
2017-10-13T02:03:30.566Z,69.42
2017-10-13T02:04:11.023Z,69.42
2017-10-13T02:04:51.476Z,69.32
2017-10-13T02:05:31.938Z,69.61
2017-10-13T02:06:12.398Z,69.51
2017-10-13T02:06:52.852Z,69.13
2017-10-13T02:07:33.312Z,69.51
2017-10-13T02:08:13.761Z,69.32
2017-10-13T02:08:54.215Z,69.32
2017-10-13T02:09:34.664Z,69.32
2017-10-13T02:10:15.120Z,69.32
2017-10-13T02:10:55.575Z,69.61
2017-10-13T02:11:36.016Z,69.32
2017-10-13T02:12:16.467Z,69.42
2017-10-13T02:12:56.922Z,69.23
2017-10-13T02:14:54.644Z,69.42
2017-10-13T02:15:35.093Z,69.13
2017-10-13T02:16:15.550Z,69.61
2017-10-13T02:16:55.988Z,69.42
2017-10-13T02:17:36.441Z,69.42
2017-10-13T02:18:16.897Z,69.42
2017-10-13T02:18:57.344Z,69.13
2017-10-13T02:19:37.803Z,69.23
2017-10-13T02:20:18.255Z,69.32
2017-10-13T02:20:58.706Z,69.23
2017-10-13T02:21:39.162Z,69.51
2017-10-13T02:22:19.608Z,69.42
2017-10-13T02:23:00.071Z,69.51
2017-10-13T02:23:40.526Z,69.42
2017-10-13T02:24:20.976Z,69.51
2017-10-13T02:25:01.444Z,69.42
2017-10-13T02:25:41.897Z,69.51
2017-10-13T02:26:22.360Z,69.03
2017-10-13T02:27:02.813Z,69.32
2017-10-13T02:27:43.274Z,69.42
2017-10-13T02:28:23.732Z,69.51
2017-10-13T02:29:04.189Z,69.42
2017-10-13T02:29:44.643Z,69.61
2017-10-13T02:30:25.127Z,69.71
2017-10-13T02:31:05.587Z,69.61
2017-10-13T02:31:46.036Z,68.93
2017-10-13T02:32:26.490Z,69.13
2017-10-13T02:33:06.947Z,69.13
2017-10-13T02:33:47.405Z,69.32
2017-10-13T02:34:27.861Z,69.32
2017-10-13T02:35:08.321Z,69.32
2017-10-13T02:35:48.782Z,69.51
2017-10-13T02:36:29.237Z,69.51
2017-10-13T02:37:09.692Z,69.61
2017-10-13T02:37:50.152Z,69.51
2017-10-13T02:38:30.601Z,69.42
2017-10-13T02:39:11.062Z,69.42
2017-10-13T02:39:51.519Z,69.42
2017-10-13T02:40:31.976Z,70
2017-10-13T02:41:12.431Z,69.42
2017-10-13T02:41:52.880Z,69.9
2017-10-13T02:42:33.336Z,69.8
2017-10-13T02:43:13.786Z,69.8
2017-10-13T02:43:54.249Z,69.8
2017-10-13T02:44:34.689Z,69.8
2017-10-13T02:45:15.143Z,69.8
2017-10-13T02:45:55.593Z,69.51
2017-10-13T02:46:36.043Z,69.9
2017-10-13T02:47:16.490Z,69.71
2017-10-13T02:47:56.946Z,69.61
2017-10-13T02:48:37.407Z,69.8
2017-10-13T02:49:17.865Z,69.61
2017-10-13T02:49:58.326Z,69.71
2017-10-13T02:50:38.778Z,69.61
2017-10-13T02:51:19.229Z,69.71
2017-10-13T02:51:59.697Z,69.71
2017-10-13T02:52:40.137Z,69.42
2017-10-13T02:53:20.590Z,69.8
2017-10-13T02:54:01.048Z,69.61
2017-10-13T02:54:41.505Z,69.9
2017-10-13T02:55:21.966Z,69.9
2017-10-13T02:56:02.421Z,69.9
2017-10-13T02:56:42.879Z,69.9
2017-10-13T02:57:23.329Z,70
2017-10-13T02:58:03.781Z,69.8
2017-10-13T02:58:44.240Z,70
2017-10-13T02:59:24.689Z,69.9
2017-10-13T03:00:05.146Z,69.71
2017-10-13T03:00:45.620Z,69.8
2017-10-13T03:01:26.060Z,69.8
2017-10-13T03:02:06.507Z,70
2017-10-13T03:02:46.957Z,69.61
2017-10-13T03:03:27.416Z,69.71
2017-10-13T03:04:07.872Z,69.8
2017-10-13T03:04:48.323Z,69.71
2017-10-13T03:05:28.777Z,69.71
2017-10-13T03:06:09.231Z,69.71
2017-10-13T03:06:49.702Z,69.8
2017-10-13T03:07:30.140Z,69.71
2017-10-13T03:08:10.596Z,69.8
2017-10-13T03:08:51.048Z,69.8
2017-10-13T03:09:31.496Z,69.8
2017-10-13T03:10:11.953Z,69.8
2017-10-13T03:10:52.409Z,69.9
2017-10-13T03:11:32.851Z,69.61
2017-10-13T03:12:13.301Z,69.8
2017-10-13T03:12:53.747Z,69.8
2017-10-13T03:13:34.203Z,69.8
2017-10-13T03:14:14.665Z,69.8
2017-10-13T03:14:55.115Z,69.61
2017-10-13T03:15:35.570Z,70.09
2017-10-13T03:16:16.037Z,70.38
2017-10-13T03:16:56.479Z,70.38
2017-10-13T03:17:36.934Z,70.28
2017-10-13T03:18:17.382Z,70.19
2017-10-13T03:18:57.842Z,69.71
2017-10-13T03:19:38.298Z,70.19
2017-10-13T03:20:18.761Z,70.48
2017-10-13T03:20:59.208Z,70.28
2017-10-13T03:21:39.668Z,70.09
2017-10-13T03:22:20.122Z,70.28
2017-10-13T03:23:00.573Z,70
2017-10-13T03:23:41.019Z,70
2017-10-13T03:24:21.470Z,70
2017-10-13T03:25:01.921Z,70
2017-10-13T03:25:42.375Z,70.28
2017-10-13T03:26:22.825Z,70.09
2017-10-13T03:27:03.279Z,70.09
2017-10-13T03:27:43.738Z,70.28
2017-10-13T03:28:24.189Z,70.28
2017-10-13T03:29:04.638Z,70.09
2017-10-13T03:29:45.094Z,70.28
2017-10-13T03:30:25.543Z,69.9
2017-10-13T03:31:05.998Z,70.09
2017-10-13T03:31:46.448Z,70.28
2017-10-13T03:32:26.902Z,70.28
2017-10-13T03:33:07.360Z,70.28
2017-10-13T03:33:47.816Z,70.19
2017-10-13T03:34:28.266Z,69.9
2017-10-13T03:35:08.715Z,69.9
2017-10-13T03:35:49.168Z,70.09
2017-10-13T03:36:29.623Z,70.28
2017-10-13T03:37:10.075Z,70.28
2017-10-13T03:37:50.531Z,70.28
2017-10-13T03:38:30.995Z,69.9
2017-10-13T03:39:11.437Z,69.9
2017-10-13T03:39:51.894Z,70.09
2017-10-13T03:40:32.345Z,70.19
2017-10-13T03:41:12.795Z,70.19
2017-10-13T03:41:53.242Z,69.9
2017-10-13T03:42:33.691Z,69.8
2017-10-13T03:43:14.140Z,69.9
2017-10-13T03:43:54.592Z,69.8
2017-10-13T03:44:35.058Z,69.9
2017-10-13T03:45:15.505Z,69.8
2017-10-13T03:45:55.962Z,70
2017-10-13T03:46:36.419Z,69.8
2017-10-13T03:47:16.876Z,69.9
2017-10-13T03:47:57.334Z,69.8
2017-10-13T03:48:37.785Z,70.19
2017-10-13T03:49:18.238Z,70
2017-10-13T03:49:58.705Z,69.8
2017-10-13T03:50:39.153Z,70
2017-10-13T03:51:19.603Z,69.9
2017-10-13T03:52:00.051Z,69.9
2017-10-13T03:52:40.505Z,70
2017-10-13T03:53:20.959Z,70
2017-10-13T03:54:01.416Z,70.09
2017-10-13T03:54:41.863Z,69.8
2017-10-13T03:55:22.319Z,69.9
2017-10-13T03:56:02.778Z,70.19
2017-10-13T03:56:43.222Z,70.19
2017-10-13T03:57:23.676Z,70.19
2017-10-13T03:58:04.127Z,69.8
2017-10-13T03:58:44.579Z,70.09
2017-10-13T03:59:25.036Z,70.19
2017-10-13T04:00:05.490Z,70
2017-10-13T04:00:45.952Z,69.9
2017-10-13T04:01:26.407Z,70.28
2017-10-13T04:02:06.867Z,69.9
2017-10-13T04:02:47.315Z,69.9
2017-10-13T04:03:27.762Z,70.09
2017-10-13T04:04:08.214Z,70.28
2017-10-13T04:04:48.679Z,70.28
2017-10-13T04:05:29.131Z,70
2017-10-13T04:06:09.586Z,70.28
2017-10-13T04:06:50.030Z,70.09
2017-10-13T04:07:30.478Z,70.38
2017-10-13T04:08:10.936Z,70
2017-10-13T04:08:51.387Z,69.61
2017-10-13T04:09:31.846Z,69.71
2017-10-13T04:10:12.300Z,69.8
2017-10-13T04:10:52.754Z,69.71
2017-10-13T04:11:33.240Z,69.9
2017-10-13T04:12:13.697Z,69.8
2017-10-13T04:12:54.157Z,69.71
2017-10-13T04:13:34.627Z,69.9
2017-10-13T04:14:15.073Z,70
2017-10-13T04:14:55.536Z,70
2017-10-13T04:15:35.984Z,69.9
2017-10-13T04:16:16.428Z,69.9
2017-10-13T04:16:56.951Z,69.9
2017-10-13T04:17:37.411Z,69.9
2017-10-13T04:18:17.859Z,69.84
2017-10-13T04:18:58.315Z,69.64
2017-10-13T04:19:38.764Z,69.64
2017-10-13T04:20:19.221Z,69.71
2017-10-13T04:20:59.674Z,69.61
2017-10-13T04:21:40.133Z,70.03
2017-10-13T04:22:20.597Z,70.03
2017-10-13T04:23:01.041Z,69.61
2017-10-13T04:23:41.812Z,69.71
2017-10-13T04:24:22.281Z,69.55
2017-10-13T04:25:02.740Z,69.93
2017-10-13T04:25:43.194Z,69.61
2017-10-13T04:26:23.641Z,69.71
2017-10-13T04:27:04.099Z,69.93
2017-10-13T04:27:44.550Z,69.61
2017-10-13T04:28:25.000Z,69.55
2017-10-13T04:29:05.456Z,69.64
2017-10-13T04:29:45.914Z,69.64
2017-10-13T04:30:26.370Z,69.64
2017-10-13T04:31:06.831Z,69.74
2017-10-13T04:31:47.283Z,69.74
2017-10-13T04:32:27.740Z,69.64
2017-10-13T04:33:08.199Z,69.74
2017-10-13T04:33:48.638Z,69.64
2017-10-13T04:34:29.093Z,69.64
2017-10-13T04:35:09.549Z,69.64
2017-10-13T04:35:50.007Z,69.64
2017-10-13T04:36:30.456Z,69.84
2017-10-13T04:37:10.916Z,69.74
2017-10-13T04:37:51.370Z,69.64
2017-10-13T04:38:31.813Z,69.55
2017-10-13T04:39:12.261Z,69.64
2017-10-13T04:39:52.729Z,69.93
2017-10-13T04:40:33.184Z,69.64
2017-10-13T04:41:13.635Z,69.84
2017-10-13T04:41:54.090Z,70.03
2017-10-13T04:42:34.515Z,69.93
2017-10-13T04:43:14.960Z,70.03
2017-10-13T04:43:55.407Z,69.84
2017-10-13T04:44:35.866Z,70.13
2017-10-13T04:45:16.311Z,69.84
2017-10-13T04:45:56.762Z,69.93
2017-10-13T04:46:37.217Z,69.84
2017-10-13T04:47:17.672Z,69.74
2017-10-13T04:47:58.113Z,69.84
2017-10-13T04:48:38.566Z,69.74
2017-10-13T04:49:19.018Z,69.84
2017-10-13T04:49:59.474Z,69.84
2017-10-13T04:50:39.946Z,69.84
2017-10-13T04:51:20.387Z,69.64
2017-10-13T04:52:00.841Z,69.74
2017-10-13T04:52:41.298Z,69.93
2017-10-13T04:53:21.743Z,70.22
2017-10-13T04:54:02.201Z,70.03
2017-10-13T04:54:42.651Z,70.13
2017-10-13T04:55:23.106Z,70.13
2017-10-13T04:56:03.563Z,70.13
2017-10-13T04:56:44.013Z,70.22
2017-10-13T04:57:24.471Z,69.84
2017-10-13T04:58:04.926Z,70.32
2017-10-13T04:58:45.389Z,70.22
2017-10-13T04:59:25.840Z,70.42
2017-10-13T05:00:06.295Z,70.13
2017-10-13T05:00:46.743Z,70.03
2017-10-13T05:01:27.155Z,69.93
2017-10-13T05:02:07.591Z,70.13
2017-10-13T05:02:48.039Z,70.03
2017-10-13T05:03:28.481Z,70.13
2017-10-13T05:04:08.934Z,70.03
2017-10-13T05:04:49.393Z,70.03
2017-10-13T05:05:29.854Z,69.84
2017-10-13T05:06:10.310Z,70.03
2017-10-13T05:06:50.771Z,70.22
2017-10-13T05:07:31.226Z,69.93
2017-10-13T05:08:11.679Z,69.84
2017-10-13T05:08:52.149Z,70.22
2017-10-13T05:09:32.596Z,69.84
2017-10-13T05:10:13.048Z,69.93
2017-10-13T05:10:53.502Z,69.84
2017-10-13T05:11:33.955Z,70.03
2017-10-13T05:12:14.417Z,70.03
2017-10-13T05:12:54.872Z,69.93
2017-10-13T05:13:35.326Z,70.03
2017-10-13T05:14:15.792Z,70.13
2017-10-13T05:14:56.241Z,69.93
2017-10-13T05:15:36.693Z,69.93
2017-10-13T05:16:17.151Z,69.84
2017-10-13T05:16:57.608Z,70.03
2017-10-13T05:17:38.061Z,70.03
2017-10-13T05:18:18.530Z,69.84
2017-10-13T05:18:58.981Z,69.93
2017-10-13T05:19:39.433Z,69.93
2017-10-13T05:20:19.891Z,69.84
2017-10-13T05:21:00.364Z,69.93
2017-10-13T05:21:40.800Z,69.93
2017-10-13T05:22:21.249Z,69.93
2017-10-13T05:23:01.701Z,70.03
2017-10-13T05:23:42.162Z,69.93
2017-10-13T05:24:22.613Z,70.03
2017-10-13T05:25:03.066Z,69.93
2017-10-13T05:25:43.546Z,69.93
2017-10-13T05:26:23.997Z,70.13
2017-10-13T05:27:04.455Z,70.03
2017-10-13T05:27:44.912Z,70.13
2017-10-13T05:28:25.370Z,69.84
2017-10-13T05:29:05.836Z,70.61
2017-10-13T05:29:46.293Z,69.8
2017-10-13T05:30:26.750Z,69.93
2017-10-13T05:31:07.202Z,70.13
2017-10-13T05:31:47.653Z,69.93
2017-10-13T05:32:28.115Z,69.8
2017-10-13T05:33:08.568Z,70.38
2017-10-13T05:33:49.032Z,70.42
2017-10-13T05:34:29.491Z,70.51
2017-10-13T05:35:09.947Z,70.03
2017-10-13T05:35:50.405Z,70.42
2017-10-13T05:36:30.854Z,70.42
2017-10-13T05:37:11.315Z,70.42
2017-10-13T05:37:51.779Z,70.28
2017-10-13T05:38:32.233Z,70.42
2017-10-13T05:39:12.702Z,70.38
2017-10-13T05:39:53.141Z,70.38
2017-10-13T05:40:33.617Z,70.32
2017-10-13T05:41:14.073Z,70.38
2017-10-13T05:41:54.525Z,70.38
2017-10-13T05:42:34.964Z,70.38
2017-10-13T05:43:15.426Z,70.42
2017-10-13T05:43:55.883Z,70.48
2017-10-13T05:44:36.342Z,70.38
2017-10-13T05:45:16.801Z,70.61
2017-10-13T05:45:57.255Z,70.7
2017-10-13T05:46:37.725Z,70.42
2017-10-13T05:47:18.171Z,70.09
2017-10-13T05:47:58.625Z,70.22
2017-10-13T05:48:39.092Z,70.28
2017-10-13T05:49:19.548Z,70.42
2017-10-13T05:50:00.010Z,70.42
2017-10-13T05:50:40.480Z,70.32
2017-10-13T05:51:20.935Z,70.48
2017-10-13T05:52:02.560Z,70.57
2017-10-13T05:52:43.016Z,70.48
2017-10-13T05:53:23.468Z,70.28
2017-10-13T05:54:03.928Z,70.48
2017-10-13T05:54:44.382Z,70.32
2017-10-13T05:55:24.842Z,70.51
2017-10-13T05:56:05.291Z,70.38
2017-10-13T05:56:45.747Z,70.32
2017-10-13T05:57:26.208Z,70.32
2017-10-13T05:58:06.667Z,70.48
2017-10-13T05:58:47.124Z,70.28
2017-10-13T05:59:27.584Z,70.51
2017-10-13T06:00:08.053Z,70.32
2017-10-13T06:00:48.509Z,70.32
2017-10-13T06:01:28.952Z,70.48
2017-10-13T06:02:09.399Z,70.51
2017-10-13T06:02:49.861Z,70.51
2017-10-13T06:03:30.324Z,70.32
2017-10-13T06:04:10.768Z,70.32
2017-10-13T06:04:51.228Z,70.51
2017-10-13T06:05:31.689Z,70.42
2017-10-13T06:06:12.144Z,70.51
2017-10-13T06:06:52.603Z,70.32
2017-10-13T06:07:33.101Z,70.28
2017-10-13T06:08:13.553Z,70.48
2017-10-13T06:08:54.014Z,70.48
2017-10-13T06:09:34.468Z,70.51
2017-10-13T06:10:14.935Z,70.48
2017-10-13T06:10:55.396Z,70.48
2017-10-13T06:11:35.865Z,70.28
2017-10-13T06:12:16.318Z,70.32
2017-10-13T06:12:56.776Z,70.48
2017-10-13T06:13:37.228Z,70.48
2017-10-13T06:14:17.684Z,70.48
2017-10-13T06:14:58.140Z,70.51
2017-10-13T06:15:38.595Z,70.51
2017-10-13T06:16:19.037Z,70.51
2017-10-13T06:16:59.497Z,70.32
2017-10-13T06:17:39.943Z,70.51
2017-10-13T06:18:20.400Z,70.61
2017-10-13T06:19:00.859Z,70.32
2017-10-13T06:19:41.316Z,70.42
2017-10-13T06:20:21.769Z,70.51
2017-10-13T06:21:02.218Z,70.32
2017-10-13T06:21:42.669Z,70.32
2017-10-13T06:22:23.135Z,70.42
2017-10-13T06:23:03.592Z,70.42
2017-10-13T06:23:44.047Z,70.32
2017-10-13T06:24:24.500Z,70.22
2017-10-13T06:25:04.951Z,70.32
2017-10-13T06:25:45.410Z,70.13
2017-10-13T06:26:25.864Z,70.32
2017-10-13T06:27:06.322Z,70.32
2017-10-13T06:27:46.781Z,70.61
2017-10-13T06:28:27.242Z,70.32
2017-10-13T06:29:07.692Z,70.51
2017-10-13T06:29:48.147Z,70.32
2017-10-13T06:30:28.602Z,70.51
2017-10-13T06:31:09.056Z,70.51
2017-10-13T06:31:49.523Z,70.7
2017-10-13T06:32:29.971Z,70.7
2017-10-13T06:33:10.429Z,70.8
2017-10-13T06:33:50.893Z,70.7
2017-10-13T06:34:31.337Z,70.9
2017-10-13T06:35:11.798Z,71
2017-10-13T06:35:52.246Z,71
2017-10-13T06:36:32.699Z,70.8
2017-10-13T06:37:13.145Z,70.61
2017-10-13T06:37:53.605Z,70.7
2017-10-13T06:38:34.335Z,70.7
2017-10-13T06:39:14.625Z,70.8
2017-10-13T06:39:55.083Z,70.7
2017-10-13T06:40:35.542Z,70.7
2017-10-13T06:41:16.000Z,70.7
2017-10-13T06:41:56.453Z,71.09
2017-10-13T06:42:36.935Z,71.09
2017-10-13T06:43:17.390Z,71
2017-10-13T06:43:57.854Z,70.94
2017-10-13T06:44:38.310Z,71.09
2017-10-13T06:45:18.763Z,71.03
2017-10-13T06:45:59.224Z,70.7
2017-10-13T06:46:39.670Z,70.9
2017-10-13T06:47:20.126Z,71.61
2017-10-13T06:48:00.589Z,71.61
2017-10-13T06:48:41.036Z,71.48
2017-10-13T06:49:21.489Z,71.48
2017-10-13T06:50:01.950Z,71.58
2017-10-13T06:50:42.406Z,71.38
2017-10-13T06:51:22.905Z,71.38
2017-10-13T06:52:03.363Z,71.28
2017-10-13T06:52:43.824Z,71.38
2017-10-13T06:53:24.284Z,71.42
2017-10-13T06:54:04.740Z,71.38
2017-10-13T06:54:45.192Z,71.51
2017-10-13T06:55:25.656Z,71.51
2017-10-13T06:56:06.099Z,71.03
2017-10-13T06:56:46.571Z,71.12
2017-10-13T06:57:27.028Z,71.32
2017-10-13T06:58:07.483Z,70.74
2017-10-13T06:58:47.934Z,70.84
2017-10-13T06:59:28.386Z,70.61
2017-10-13T07:00:08.843Z,70.42
2017-10-13T07:00:49.307Z,70.54
2017-10-13T07:01:29.742Z,70.13
2017-10-13T07:02:10.682Z,70.61
2017-10-13T07:02:51.682Z,69.93
2017-10-13T07:03:32.139Z,70.06
2017-10-13T07:04:12.584Z,69.64
2017-10-13T07:04:53.040Z,69.78
2017-10-13T07:05:33.490Z,69.84
2017-10-13T07:06:16.321Z,69.29
2017-10-13T07:06:56.670Z,69.49
2017-10-13T07:07:37.398Z,68.91
2017-10-13T07:08:17.852Z,69.49
2017-10-13T07:08:58.538Z,69.29
2017-10-13T07:09:39.542Z,68.81
2017-10-13T07:10:19.992Z,68.81
2017-10-13T07:11:00.452Z,68.52
2017-10-13T07:11:40.910Z,68.71
2017-10-13T07:12:21.435Z,68.23
2017-10-13T07:13:01.957Z,68.33
2017-10-13T07:13:42.413Z,68.23
2017-10-13T07:14:22.881Z,67.78
2017-10-13T07:15:03.329Z,67.97
2017-10-13T07:15:43.781Z,67.97
2017-10-13T07:16:24.860Z,67.69
2017-10-13T07:17:05.349Z,67.49
2017-10-13T07:17:45.809Z,67.78
2017-10-13T07:18:26.306Z,67.49
2017-10-13T07:19:06.741Z,67.04
2017-10-13T07:19:47.195Z,67.04
2017-10-13T07:20:27.643Z,67.33
2017-10-13T07:21:08.120Z,66.66
2017-10-13T07:21:48.557Z,66.75
2017-10-13T07:22:29.013Z,66.75
2017-10-13T07:23:09.480Z,66.46
2017-10-13T07:23:49.959Z,66.36
2017-10-13T07:24:30.401Z,66.27
2017-10-13T07:25:10.853Z,66.75
2017-10-13T07:25:51.310Z,65.88
2017-10-13T07:26:31.765Z,65.69
2017-10-13T07:27:12.219Z,66.08
2017-10-13T07:27:52.672Z,66.01
2017-10-13T07:28:33.139Z,65.43
2017-10-13T07:29:13.604Z,66.01
2017-10-13T07:29:54.056Z,65.63
2017-10-13T07:30:34.517Z,65.43
2017-10-13T07:31:14.976Z,65.72
2017-10-13T07:31:55.434Z,65.53
2017-10-13T07:32:35.892Z,65.34
2017-10-13T07:33:16.367Z,64.95
2017-10-13T07:33:56.802Z,64.66
2017-10-13T07:34:37.257Z,64.56
2017-10-13T07:35:17.721Z,64.95
2017-10-13T07:35:58.164Z,64.69
2017-10-13T07:36:38.638Z,64.89
2017-10-13T07:37:19.102Z,64.5
2017-10-13T07:37:59.614Z,64.31
2017-10-13T07:38:40.032Z,64.4
2017-10-13T07:39:20.491Z,64.69
2017-10-13T07:40:00.920Z,64.31
2017-10-13T07:40:41.398Z,64.11
2017-10-13T07:42:34.022Z,63.66
2017-10-13T07:43:14.459Z,63.76
2017-10-13T07:43:54.901Z,63.95
2017-10-13T07:44:35.353Z,64.14
2017-10-13T07:45:15.804Z,63.95
2017-10-13T07:45:56.248Z,63.85
2017-10-13T07:46:36.708Z,63.66
2017-10-13T07:47:17.149Z,63.37
2017-10-13T07:47:57.730Z,63.56
2017-10-13T07:48:38.178Z,63.27
2017-10-13T07:49:18.639Z,63.18
2017-10-13T07:49:59.087Z,63.31
2017-10-13T07:50:39.866Z,63.21
2017-10-13T07:51:20.332Z,63.31
2017-10-13T07:52:00.850Z,63.21
2017-10-13T07:52:41.446Z,63.31
2017-10-13T07:53:21.998Z,63.31
2017-10-13T07:54:02.726Z,63.01
2017-10-13T07:54:43.076Z,63.01
2017-10-13T07:55:23.538Z,63.01
2017-10-13T07:56:04.017Z,62.82
2017-10-13T07:56:44.494Z,63.01
2017-10-13T07:57:24.938Z,62.92
2017-10-13T07:58:05.488Z,62.92
2017-10-13T08:00:19.424Z,63.01
2017-10-13T08:00:59.876Z,63.01
2017-10-13T08:01:40.324Z,62.92
2017-10-13T08:02:20.771Z,62.92
2017-10-13T08:03:01.235Z,62.88
2017-10-13T08:03:42.449Z,63.37
2017-10-13T08:04:23.380Z,63.27
2017-10-13T08:05:03.841Z,63.18
2017-10-13T08:05:44.292Z,63.18
2017-10-13T08:06:24.746Z,63.27
2017-10-13T08:07:05.303Z,63.18
2017-10-13T08:07:46.896Z,62.92
2017-10-13T08:08:26.649Z,62.88
2017-10-13T08:09:07.102Z,63.01
2017-10-13T08:11:20.021Z,63.01
2017-10-13T08:12:00.466Z,63.01
2017-10-13T08:12:41.002Z,63.01
2017-10-13T08:13:21.454Z,62.98
2017-10-13T08:14:01.977Z,62.82
2017-10-13T08:14:42.398Z,63.08
2017-10-13T08:15:22.862Z,62.79
2017-10-13T08:16:03.333Z,63.37
2017-10-13T08:16:43.748Z,63.37
2017-10-13T08:17:24.225Z,63.08
2017-10-13T08:18:04.696Z,62.98
2017-10-13T08:18:45.152Z,63.18
2017-10-13T08:19:25.600Z,63.27
2017-10-13T08:20:06.051Z,63.18
2017-10-13T08:20:46.501Z,63.14
2017-10-13T08:21:26.956Z,63.43
2017-10-13T08:22:07.391Z,63.63
2017-10-13T08:22:47.843Z,63.73
2017-10-13T08:23:28.305Z,63.92
2017-10-13T08:24:08.746Z,63.92
2017-10-13T08:24:49.196Z,63.63
2017-10-13T08:25:29.649Z,63.63
2017-10-13T08:26:10.097Z,63.63
2017-10-13T08:26:50.557Z,63.73
2017-10-13T08:27:31.003Z,63.82
2017-10-13T08:28:11.449Z,63.73
2017-10-13T08:29:58.996Z,63.27
2017-10-13T08:30:39.444Z,62.98
2017-10-13T08:31:19.891Z,62.98
2017-10-13T08:32:00.363Z,63.18
2017-10-13T08:32:40.814Z,63.18
2017-10-13T08:33:21.271Z,63.18
2017-10-13T08:34:01.730Z,63.18
2017-10-13T08:34:42.171Z,63.18
2017-10-13T08:35:22.629Z,63.18
2017-10-13T08:36:03.114Z,62.79
2017-10-13T08:36:43.571Z,62.88
2017-10-13T08:37:24.021Z,62.88
2017-10-13T08:38:04.479Z,63.08
2017-10-13T08:38:44.927Z,62.98
2017-10-13T08:39:25.403Z,62.69
2017-10-13T08:41:18.164Z,62.98
2017-10-13T08:41:58.625Z,63.08
2017-10-13T08:42:39.089Z,62.69
2017-10-13T08:43:19.538Z,62.98
2017-10-13T08:43:59.986Z,62.59
2017-10-13T08:44:40.439Z,63.37
2017-10-13T08:45:20.890Z,63.46
2017-10-13T08:46:01.307Z,63.37
2017-10-13T08:46:41.757Z,63.18
2017-10-13T08:47:22.210Z,63.18
2017-10-13T08:48:02.662Z,62.88
2017-10-13T08:48:43.120Z,62.98
2017-10-13T08:49:23.569Z,62.95
2017-10-13T08:50:04.032Z,62.88
2017-10-13T08:50:44.512Z,63.14
2017-10-13T08:51:24.958Z,63.05
2017-10-13T08:52:05.410Z,62.98